Time,TemperatureF,DewpointF,PressureIn,WindDirection,WindDirectionDegrees,WindSpeedMPH,WindSpeedGustMPH,Humidity,HourlyPrecipIn,Conditions,Clouds,dailyrainin,SolarRadiationWatts/m^2,SoftwareType,DateUTC
2013-02-26 00:15:00,25.4,22.3,30.64,ESE,115,1.0,3.0,88,0.00,CLR,SKC,0.00,0.0,WeatherDisplay:10.37,2013-02-26 07:15:00,
2013-02-26 00:45:00,25.4,22.6,30.62,ESE,115,0.0,1.0,89,0.00,CLR,SKC,0.00,0.0,WeatherDisplay:10.37,2013-02-26 07:45:00,
2013-02-26 01:15:00,25.1,22.3,30.62,ESE,115,0.0,0.0,89,0.00,CLR,SKC,0.00,0.0,WeatherDisplay:10.37,2013-02-26 08:15:00,
2013-02-26 01:45:00,24.6,21.8,30.61,East,82,3.0,6.0,89,0.00,CLR,SKC,0.00,0.0,WeatherDisplay:10.37,2013-02-26 08:45:00,
2013-02-26 02:15:00,24.2,21.4,30.61,ENE,60,0.0,1.0,89,0.00,CLR,SKC,0.00,0.0,WeatherDisplay:10.37,2013-02-26 09:15:00,
2013-02-26 02:45:00,23.0,20.2,30.61,ENE,60,0.0,1.0,89,0.00,CLR,SKC,0.00,0.0,WeatherDisplay:10.37,2013-02-26 09:45:00,
2013-02-26 03:15:00,22.3,19.3,30.59,South,189,0.0,3.0,88,0.00,CLR,SKC,0.00,0.0,WeatherDisplay:10.37,2013-02-26 10:15:00,
2013-02-26 03:45:00,18.9,15.7,30.58,SW,229,1.0,3.0,87,0.00,CLR,SKC,0.00,0.0,WeatherDisplay:10.37,2013-02-26 10:45:00,
2013-02-26 04:15:00,17.8,15.1,30.59,East,82,1.0,5.0,89,0.00,CLR,SKC,0.00,0.0,WeatherDisplay:10.37,2013-02-26 11:15:00,
2013-02-26 04:45:00,19.6,17.1,30.59,East,87,3.0,7.0,90,0.00,CLR,SKC,0.00,0.0,WeatherDisplay:10.37,2013-02-26 11:45:00,
2013-02-26 05:15:00,19.6,16.4,30.59,SSE,164,1.0,4.0,87,0.00,CLR,SKC,0.00,0.0,WeatherDisplay:10.37,2013-02-26 12:15:00,
2013-02-26 05:45:00,18.4,14.9,30.59,SSE,166,0.0,2.0,86,0.00,CLR,SKC,0.00,0.0,WeatherDisplay:10.37,2013-02-26 12:45:00,
2013-02-26 06:15:00,17.1,13.1,30.60,South,178,0.0,0.0,84,0.00,CLR,SKC,0.00,0.0,WeatherDisplay:10.37,2013-02-26 13:15:00,
2013-02-26 06:45:00,18.7,15.0,30.60,South,178,1.0,2.0,85,0.00,CLR,SKC,0.00,0.0,WeatherDisplay:10.37,2013-02-26 13:45:00,
2013-02-26 07:15:00,19.1,14.7,30.61,East,97,0.0,2.0,83,0.00,BKN,SKC,0.00,11.0,WeatherDisplay:10.37,2013-02-26 14:15:00,
2013-02-26 07:45:00,21.0,16.1,30.62,ESE,109,0.0,1.0,81,0.00,BKN,SKC,0.00,51.0,WeatherDisplay:10.37,2013-02-26 14:45:00,
2013-02-26 08:15:00,22.4,16.6,30.63,ESE,109,0.0,1.0,78,0.00,BKN,SKC,0.00,79.0,WeatherDisplay:10.37,2013-02-26 15:15:00,
2013-02-26 08:45:00,22.8,17.0,30.63,SSE,152,0.0,3.0,78,0.00,BKN,SKC,0.00,105.0,WeatherDisplay:10.37,2013-02-26 15:45:00,
2013-02-26 09:15:00,24.5,17.7,30.65,SSW,193,0.0,2.0,75,0.00,BKN,SKC,0.00,130.0,WeatherDisplay:10.37,2013-02-26 16:15:00,
2013-02-26 09:45:00,25.3,17.6,30.66,South,169,0.0,2.0,72,0.00,SCT,SKC,0.00,339.0,WeatherDisplay:10.37,2013-02-26 16:45:00,
2013-02-26 10:15:00,26.9,16.7,30.67,SSE,154,0.0,4.0,65,0.00,SCT,SKC,0.00,265.0,WeatherDisplay:10.37,2013-02-26 17:15:00,
2013-02-26 10:45:00,25.3,18.1,30.68,ESE,109,0.0,1.0,74,0.00,BKN,SKC,0.00,401.0,WeatherDisplay:10.37,2013-02-26 17:45:00,
2013-02-26 11:15:00,26.4,18.3,30.68,South,184,5.0,6.0,71,0.00,SCT,SKC,0.00,417.0,WeatherDisplay:10.37,2013-02-26 18:15:00,
2013-02-26 11:45:00,26.6,17.4,30.69,SSW,197,0.0,7.0,68,0.00,SCT,SKC,0.00,403.0,WeatherDisplay:10.37,2013-02-26 18:45:00,
2013-02-26 12:15:00,27.2,18.7,30.69,NNE,19,1.0,5.0,70,0.00,SCT,SKC,0.00,450.0,WeatherDisplay:10.37,2013-02-26 19:15:00,
2013-02-26 12:45:00,29.8,18.0,30.69,WNW,295,3.0,5.0,61,0.00,CLR,SKC,0.00,738.0,WeatherDisplay:10.37,2013-02-26 19:45:00,
2013-02-26 13:15:00,27.8,18.9,30.69,ENE,58,5.0,7.0,69,0.00,FEW,SKC,0.00,399.0,WeatherDisplay:10.37,2013-02-26 20:15:00,
2013-02-26 13:45:00,25.7,20.7,30.70,East,82,1.0,6.0,81,0.00,SCT,SKC,0.00,308.0,WeatherDisplay:10.37,2013-02-26 20:45:00,
2013-02-26 14:15:00,25.7,22.1,30.70,East,101,5.0,6.0,86,0.00,CLR,SKC,0.00,550.0,WeatherDisplay:10.37,2013-02-26 21:15:00,
2013-02-26 14:45:00,27.2,20.6,30.70,East,96,6.0,7.0,76,0.00,CLR,SKC,0.00,388.0,WeatherDisplay:10.37,2013-02-26 21:45:00,
2013-02-26 15:15:00,28.4,18.8,30.70,East,90,6.0,8.0,67,0.00,CLR,SKC,0.00,592.0,WeatherDisplay:10.37,2013-02-26 22:15:00,
2013-02-26 15:45:00,28.0,18.8,30.71,SE,137,2.0,5.0,68,0.00,CLR,SKC,0.00,735.0,WeatherDisplay:10.37,2013-02-26 22:45:00,
2013-02-26 16:15:00,29.6,16.6,30.71,ESE,117,3.0,5.0,58,0.00,CLR,SKC,0.00,420.0,WeatherDisplay:10.37,2013-02-26 23:15:00,
2013-02-26 16:45:00,28.1,18.9,30.72,ESE,110,7.0,10.0,68,0.00,CLR,SKC,0.00,334.0,WeatherDisplay:10.37,2013-02-26 23:45:00,
2013-02-26 17:15:00,28.5,16.7,30.72,ESE,111,5.0,8.0,61,0.00,CLR,SKC,0.00,171.0,WeatherDisplay:10.37,2013-02-27 00:15:00,
2013-02-26 17:45:00,28.0,15.1,30.73,ESE,123,3.0,7.0,58,0.00,OVC,SKC,0.00,56.0,WeatherDisplay:10.37,2013-02-27 00:45:00,
2013-02-26 18:15:00,27.3,14.4,30.74,ESE,108,1.0,3.0,58,0.00,OVC,SKC,0.00,0.0,WeatherDisplay:10.37,2013-02-27 01:15:00,
2013-02-26 18:45:00,25.0,12.7,30.76,ENE,69,2.0,7.0,59,0.00,OVC,SKC,0.00,0.0,WeatherDisplay:10.37,2013-02-27 01:45:00,
2013-02-26 19:15:00,22.7,11.7,30.78,ENE,76,5.0,7.0,62,0.00,CLR,SKC,0.00,0.0,WeatherDisplay:10.37,2013-02-27 02:15:00,
2013-02-26 19:45:00,23.1,11.7,30.79,NE,50,3.0,7.0,61,0.00,CLR,SKC,0.00,0.0,WeatherDisplay:10.37,2013-02-27 02:45:00,
2013-02-26 20:15:00,21.6,11.3,30.81,East,96,5.0,8.0,64,0.00,CLR,SKC,0.00,0.0,WeatherDisplay:10.37,2013-02-27 03:15:00,
2013-02-26 20:45:00,22.4,11.4,30.82,ENE,69,3.0,6.0,62,0.00,CLR,SKC,0.00,0.0,WeatherDisplay:10.37,2013-02-27 03:45:00,
2013-02-26 21:15:00,20.5,10.6,30.84,East,91,6.0,7.0,65,0.00,CLR,SKC,0.00,0.0,WeatherDisplay:10.37,2013-02-27 04:15:00,
2013-02-26 21:45:00,22.3,11.6,30.84,East,80,5.0,9.0,63,0.00,CLR,SKC,0.00,0.0,WeatherDisplay:10.37,2013-02-27 04:45:00,
2013-02-26 22:15:00,20.5,10.2,30.84,East,84,5.0,7.0,64,0.00,CLR,SKC,0.00,0.0,WeatherDisplay:10.37,2013-02-27 05:15:00,
2013-02-26 22:45:00,16.5,7.5,30.85,East,98,1.0,4.0,67,0.00,CLR,SKC,0.00,0.0,WeatherDisplay:10.37,2013-02-27 05:45:00,
2013-02-26 23:15:00,15.8,7.1,30.85,East,95,2.0,5.0,68,0.00,CLR,SKC,0.00,0.0,WeatherDisplay:10.37,2013-02-27 06:15:00,
2013-02-26 23:45:00,13.9,5.9,30.86,ENE,77,2.0,5.0,70,0.00,CLR,SKC,0.00,0.0,WeatherDisplay:10.37,2013-02-27 06:45:00,